createdAt,value
2022-10-23T00:00:11.810Z,100151.31
2022-10-23T00:00:44.053Z,100147.09
2022-10-23T00:01:39.875Z,100152.31
2022-10-23T00:02:11.731Z,100160.16
2022-10-23T00:02:44.033Z,100163.59
2022-10-23T00:03:16.164Z,100154.34
2022-10-23T00:03:50.517Z,100154.34
2022-10-23T00:04:25.375Z,100159.78
2022-10-23T00:04:57.194Z,100159.34
2022-10-23T00:05:29.458Z,100152.31
2022-10-23T00:06:04.613Z,100154.53
2022-10-23T00:06:36.836Z,100154.53
2022-10-23T00:07:08.674Z,100156.94
2022-10-23T00:07:40.639Z,100160.16
2022-10-23T00:08:12.509Z,100162.19
2022-10-23T00:08:46.604Z,100164.56
2022-10-23T00:09:21.443Z,100163.19
2022-10-23T00:09:53.433Z,100161.56
2022-10-23T00:10:27.739Z,100159.16
2022-10-23T00:10:59.601Z,100159.56
2022-10-23T00:11:32.575Z,100164.00
2022-10-23T00:12:04.604Z,100166.41
2022-10-23T00:12:36.589Z,100166.00
2022-10-23T00:13:09.057Z,100163.59
2022-10-23T00:13:41.423Z,100169.81
2022-10-23T00:14:14.689Z,100165.41
2022-10-23T00:14:46.537Z,100155.94
2022-10-23T00:15:21.110Z,100167.41
2022-10-23T00:16:30.518Z,100155.72
2022-10-23T00:17:02.684Z,100157.12
2022-10-23T00:17:35.137Z,100167.59
2022-10-23T00:18:06.964Z,100161.56
2022-10-23T00:18:39.121Z,100156.75
2022-10-23T00:19:11.253Z,100160.78
2022-10-23T00:19:43.099Z,100166.78
2022-10-23T00:20:16.516Z,100161.75
2022-10-23T00:20:48.355Z,100165.38
2022-10-23T00:21:20.993Z,100163.56
2022-10-23T00:21:52.885Z,100162.37
2022-10-23T00:22:25.040Z,100162.37
2022-10-23T00:22:56.864Z,100168.59
2022-10-23T00:23:28.739Z,100159.94
2022-10-23T00:24:00.657Z,100162.75
2022-10-23T00:24:32.532Z,100164.16
2022-10-23T00:25:09.009Z,100168.81
2022-10-23T00:25:40.822Z,100167.19
2022-10-23T00:26:16.385Z,100166.37
2022-10-23T00:26:50.613Z,100170.22
2022-10-23T00:27:22.447Z,100170.22
2022-10-23T00:27:54.586Z,100174.41
2022-10-23T00:28:26.619Z,100166.97
2022-10-23T00:28:58.514Z,100164.34
2022-10-23T00:29:30.465Z,100167.19
2022-10-23T00:30:04.700Z,100169.81
2022-10-23T00:30:36.531Z,100173.00
2022-10-23T00:31:08.381Z,100170.81
2022-10-23T00:31:40.367Z,100166.75
2022-10-23T00:32:12.210Z,100167.16
2022-10-23T00:32:44.037Z,100170.56
2022-10-23T00:33:16.280Z,100174.34
2022-10-23T00:33:48.336Z,100171.53
2022-10-23T00:34:20.188Z,100173.34
2022-10-23T00:34:52.080Z,100173.53
2022-10-23T00:35:24.989Z,100166.91
2022-10-23T00:35:57.168Z,100167.47
2022-10-23T00:36:29.038Z,100171.09
2022-10-23T00:37:00.919Z,100171.69
2022-10-23T00:37:33.458Z,100167.88
2022-10-23T00:38:05.365Z,100171.06
2022-10-23T00:38:38.059Z,100170.69
2022-10-23T00:39:09.941Z,100169.88
2022-10-23T00:39:41.875Z,100166.69
2022-10-23T00:40:13.745Z,100170.72
2022-10-23T00:40:47.173Z,100172.69
2022-10-23T00:41:28.743Z,100173.34
2022-10-23T00:42:00.787Z,100174.34
2022-10-23T00:42:32.655Z,100179.03
2022-10-23T00:43:04.776Z,100175.22
2022-10-23T00:44:00.297Z,100177.44
2022-10-23T00:44:32.373Z,100175.94
2022-10-23T00:45:34.390Z,100174.31
2022-10-23T00:46:06.239Z,100177.06
2022-10-23T00:46:40.621Z,100184.91
2022-10-23T00:47:13.990Z,100174.66
2022-10-23T00:47:45.885Z,100175.87
2022-10-23T00:48:18.534Z,100175.50
2022-10-23T00:48:50.489Z,100179.87
2022-10-23T00:49:23.194Z,100182.28
2022-10-23T00:49:55.460Z,100185.09
2022-10-23T00:50:29.447Z,100184.72
2022-10-23T00:51:02.546Z,100181.53
2022-10-23T00:51:40.315Z,100185.72
2022-10-23T00:52:13.572Z,100188.56
2022-10-23T00:52:49.309Z,100189.53
2022-10-23T00:53:22.189Z,100183.13
2022-10-23T00:54:12.927Z,100181.09
2022-10-23T00:54:50.233Z,100181.88
2022-10-23T00:55:24.516Z,100182.66
2022-10-23T00:55:57.699Z,100186.09
2022-10-23T00:56:31.556Z,100182.69
2022-10-23T00:57:05.648Z,100182.28
2022-10-23T00:57:42.238Z,100185.28
2022-10-23T00:58:15.777Z,100186.09
2022-10-23T00:58:47.675Z,100187.06
2022-10-23T00:59:19.538Z,100186.91
2022-10-23T00:59:51.503Z,100185.53
2022-10-23T01:00:27.998Z,100182.94
2022-10-23T01:00:59.901Z,100192.22
2022-10-23T01:01:32.134Z,100187.38
2022-10-23T01:02:05.120Z,100193.16
2022-10-23T01:02:37.118Z,100193.16
2022-10-23T01:03:09.257Z,100195.97
2022-10-23T01:03:41.414Z,100196.59
2022-10-23T01:04:13.343Z,100191.97
2022-10-23T01:04:46.464Z,100192.78
2022-10-23T01:05:22.556Z,100194.00
2022-10-23T01:06:12.510Z,100202.38
2022-10-23T01:07:09.507Z,100199.44
2022-10-23T01:07:45.716Z,100200.69
2022-10-23T01:08:31.039Z,100199.09
2022-10-23T01:09:08.772Z,100198.91
2022-10-23T01:09:42.072Z,100200.31
2022-10-23T01:10:53.154Z,100202.03
2022-10-23T01:11:34.612Z,100199.84
2022-10-23T01:12:14.134Z,100199.31
2022-10-23T01:12:55.281Z,100202.34
2022-10-23T01:13:39.033Z,100203.06
2022-10-23T01:14:17.077Z,100201.22
2022-10-23T01:15:13.771Z,100194.72
2022-10-23T01:16:13.953Z,100198.53
2022-10-23T01:17:17.691Z,100196.47
2022-10-23T01:17:58.688Z,100198.78
2022-10-23T01:18:41.889Z,100199.66
2022-10-23T01:19:51.935Z,100205.19
2022-10-23T01:20:38.783Z,100197.94
2022-10-23T01:21:32.783Z,100203.69
2022-10-23T01:22:20.241Z,100208.56
2022-10-23T01:23:10.064Z,100204.22
2022-10-23T01:23:49.428Z,100210.66
2022-10-23T01:24:39.851Z,100211.41
2022-10-23T01:25:44.888Z,100212.81
2022-10-23T01:26:37.671Z,100212.66
2022-10-23T01:27:21.997Z,100211.50
2022-10-23T01:28:01.746Z,100222.34
2022-10-23T01:29:01.490Z,100221.09
2022-10-23T01:29:46.180Z,100221.31
2022-10-23T01:30:18.255Z,100217.06
2022-10-23T01:30:50.786Z,100222.81
2022-10-23T01:31:30.789Z,100216.22
2022-10-23T01:32:27.718Z,100218.44
2022-10-23T01:33:36.107Z,100213.59
2022-10-23T01:34:22.511Z,100213.84
2022-10-23T01:35:13.999Z,100214.75
2022-10-23T01:36:14.607Z,100213.53
2022-10-23T01:36:50.805Z,100213.19
2022-10-23T01:37:35.363Z,100214.69
2022-10-23T01:38:28.120Z,100219.13
2022-10-23T01:39:09.686Z,100214.84
2022-10-23T01:39:47.356Z,100211.81
2022-10-23T01:40:24.658Z,100217.84
2022-10-23T01:41:04.259Z,100221.06
2022-10-23T01:41:44.207Z,100213.63
2022-10-23T01:42:21.707Z,100209.87
2022-10-23T01:42:58.330Z,100218.56
2022-10-23T01:43:52.129Z,100223.16
2022-10-23T01:44:43.228Z,100221.56
2022-10-23T01:45:34.282Z,100227.72
2022-10-23T01:46:10.487Z,100228.22
2022-10-23T01:46:45.209Z,100226.66
2022-10-23T01:47:58.129Z,100234.72
2022-10-23T01:48:34.155Z,100233.34
2022-10-23T01:49:10.118Z,100235.16
2022-10-23T01:49:44.579Z,100234.59
2022-10-23T01:50:18.866Z,100232.31
2022-10-23T01:50:55.104Z,100232.88
2022-10-23T01:51:31.408Z,100236.69
2022-10-23T01:52:09.336Z,100236.75
2022-10-23T01:52:42.023Z,100236.59
2022-10-23T01:53:13.949Z,100235.94
2022-10-23T01:53:49.482Z,100231.72
2022-10-23T01:54:26.861Z,100229.25
2022-10-23T01:55:01.621Z,100235.50
2022-10-23T01:55:35.032Z,100229.66
2022-10-23T01:56:15.379Z,100229.44
2022-10-23T01:56:50.509Z,100234.88
2022-10-23T01:57:29.848Z,100229.50
2022-10-23T01:58:02.947Z,100232.72
2022-10-23T01:58:45.519Z,100233.06
2022-10-23T01:59:23.658Z,100230.31
2022-10-23T02:00:01.566Z,100233.25
2022-10-23T02:00:36.119Z,100233.63
2022-10-23T02:01:11.484Z,100234.25
2022-10-23T02:01:56.326Z,100231.44
2022-10-23T02:02:30.446Z,100227.09
2022-10-23T02:03:04.622Z,100226.91
2022-10-23T02:03:39.521Z,100227.16
2022-10-23T02:04:15.757Z,100234.56
2022-10-23T02:05:24.739Z,100233.06
2022-10-23T02:05:56.687Z,100233.69
2022-10-23T02:06:29.110Z,100229.78
2022-10-23T02:07:01.155Z,100231.88
2022-10-23T02:07:34.030Z,100221.81
2022-10-23T02:08:06.949Z,100226.94
2022-10-23T02:08:39.081Z,100229.53
2022-10-23T02:09:11.292Z,100230.59
2022-10-23T02:09:43.817Z,100229.44
2022-10-23T02:10:16.192Z,100225.06
2022-10-23T02:10:51.360Z,100225.34
2022-10-23T02:11:23.487Z,100224.09
2022-10-23T02:12:02.131Z,100221.72
2022-10-23T02:12:38.391Z,100225.00
2022-10-23T02:13:39.091Z,100225.38
2022-10-23T02:14:33.895Z,100221.94
2022-10-23T02:15:43.256Z,100226.03
2022-10-23T02:16:29.896Z,100221.38
2022-10-23T02:17:15.995Z,100229.44
2022-10-23T02:18:14.921Z,100227.72
2022-10-23T02:18:51.959Z,100235.94
2022-10-23T02:19:33.499Z,100232.44
2022-10-23T02:20:18.247Z,100234.97
2022-10-23T02:21:05.016Z,100228.03
2022-10-23T02:21:50.211Z,100231.69
2022-10-23T02:22:25.575Z,100230.72
2022-10-23T02:23:05.367Z,100233.72
2022-10-23T02:23:53.694Z,100234.34
2022-10-23T02:24:44.028Z,100233.72
2022-10-23T02:25:27.858Z,100233.87
2022-10-23T02:26:27.744Z,100234.09
2022-10-23T02:27:04.099Z,100232.47
2022-10-23T02:27:40.756Z,100233.84
2022-10-23T02:28:17.991Z,100237.81
2022-10-23T02:28:54.292Z,100224.84
2022-10-23T02:29:33.624Z,100237.44
2022-10-23T02:30:09.525Z,100237.28
2022-10-23T02:30:45.154Z,100227.06
2022-10-23T02:31:20.922Z,100231.09
2022-10-23T02:31:52.965Z,100228.13
2022-10-23T02:32:27.637Z,100227.16
2022-10-23T02:33:01.111Z,100228.56
2022-10-23T02:33:34.708Z,100219.91
2022-10-23T02:34:06.659Z,100226.00
2022-10-23T02:34:38.654Z,100223.37
2022-10-23T02:35:11.203Z,100224.28
2022-10-23T02:35:43.771Z,100226.28
2022-10-23T02:36:20.152Z,100225.84
2022-10-23T02:36:52.289Z,100221.06
2022-10-23T02:37:25.579Z,100216.97
2022-10-23T02:38:00.739Z,100213.16
2022-10-23T02:38:33.190Z,100217.19
2022-10-23T02:39:05.784Z,100215.62
2022-10-23T02:39:37.848Z,100215.09
2022-10-23T02:40:11.221Z,100219.75
2022-10-23T02:40:46.115Z,100220.31
2022-10-23T02:41:39.189Z,100219.44
2022-10-23T02:42:38.565Z,100218.41
2022-10-23T02:43:36.804Z,100224.13
2022-10-23T02:44:30.141Z,100220.03
2022-10-23T02:45:10.626Z,100223.94
2022-10-23T02:46:02.648Z,100228.41
2022-10-23T02:46:56.173Z,100228.66
2022-10-23T02:47:48.341Z,100230.53
2022-10-23T02:48:33.950Z,100232.50
2022-10-23T02:49:24.149Z,100228.47
2022-10-23T02:50:27.888Z,100228.75
2022-10-23T02:51:10.539Z,100231.81
2022-10-23T02:52:01.571Z,100230.63
2022-10-23T02:52:38.803Z,100245.06
2022-10-23T02:53:21.089Z,100233.84
2022-10-23T02:54:02.146Z,100238.69
2022-10-23T02:54:54.895Z,100239.41
2022-10-23T02:56:03.685Z,100236.59
2022-10-23T02:57:23.946Z,100238.69
2022-10-23T02:58:05.616Z,100237.00
2022-10-23T02:58:48.108Z,100243.22
2022-10-23T02:59:28.484Z,100238.81
2022-10-23T03:00:08.890Z,100239.19
2022-10-23T03:00:46.467Z,100246.63
2022-10-23T03:01:23.522Z,100242.59
2022-10-23T03:02:04.161Z,100239.88
2022-10-23T03:02:41.515Z,100245.78
2022-10-23T03:03:19.297Z,100243.03
2022-10-23T03:04:01.064Z,100245.31
2022-10-23T03:04:33.615Z,100245.66
2022-10-23T03:05:10.785Z,100249.94
2022-10-23T03:05:44.991Z,100244.56
2022-10-23T03:06:19.477Z,100243.94
2022-10-23T03:06:52.049Z,100249.88
2022-10-23T03:07:26.218Z,100249.69
2022-10-23T03:08:05.535Z,100249.94
2022-10-23T03:08:43.539Z,100250.41
2022-10-23T03:09:15.403Z,100256.12
2022-10-23T03:09:47.224Z,100254.69
2022-10-23T03:10:19.274Z,100261.34
2022-10-23T03:10:51.493Z,100261.34
2022-10-23T03:11:23.982Z,100257.22
2022-10-23T03:11:55.858Z,100263.31
2022-10-23T03:12:28.665Z,100260.44
2022-10-23T03:13:00.610Z,100267.56
2022-10-23T03:13:34.682Z,100262.06
2022-10-23T03:14:07.340Z,100257.78
2022-10-23T03:14:39.215Z,100254.47
2022-10-23T03:15:12.531Z,100259.69
2022-10-23T03:15:44.797Z,100258.97
2022-10-23T03:16:16.853Z,100263.28
2022-10-23T03:16:55.283Z,100257.09
2022-10-23T03:17:27.408Z,100261.59
2022-10-23T03:17:59.747Z,100257.06
2022-10-23T03:18:31.566Z,100260.09
2022-10-23T03:19:03.896Z,100258.84
2022-10-23T03:19:36.077Z,100254.59
2022-10-23T03:20:10.427Z,100245.62
2022-10-23T03:20:42.270Z,100254.50
2022-10-23T03:21:15.414Z,100260.63
2022-10-23T03:21:47.349Z,100258.25
2022-10-23T03:22:19.412Z,100254.50
2022-10-23T03:22:52.367Z,100265.66
2022-10-23T03:23:24.209Z,100259.19
2022-10-23T03:23:56.058Z,100263.69
2022-10-23T03:24:28.620Z,100264.06
2022-10-23T03:25:01.466Z,100265.66
2022-10-23T03:25:34.503Z,100264.09
2022-10-23T03:26:06.964Z,100261.41
2022-10-23T03:26:39.194Z,100261.88
2022-10-23T03:27:13.842Z,100265.34
2022-10-23T03:27:45.740Z,100261.25
2022-10-23T03:28:19.773Z,100263.94
2022-10-23T03:28:51.602Z,100272.19
2022-10-23T03:29:24.369Z,100269.81
2022-10-23T03:29:56.288Z,100263.59
2022-10-23T03:30:28.446Z,100270.84
2022-10-23T03:31:02.194Z,100262.41
2022-10-23T03:31:34.131Z,100266.31
2022-10-23T03:32:06.393Z,100267.47
2022-10-23T03:32:38.270Z,100268.00
2022-10-23T03:33:10.728Z,100272.84
2022-10-23T03:33:42.703Z,100274.81
2022-10-23T03:34:15.098Z,100277.97
2022-10-23T03:34:47.289Z,100280.47
2022-10-23T03:35:19.132Z,100276.16
2022-10-23T03:35:51.341Z,100276.69
2022-10-23T03:36:23.170Z,100282.69
2022-10-23T03:36:55.176Z,100273.34
2022-10-23T03:37:27.056Z,100280.09
2022-10-23T03:37:58.924Z,100283.69
2022-10-23T03:38:30.839Z,100276.94
2022-10-23T03:39:04.112Z,100272.72
2022-10-23T03:39:36.110Z,100274.09
2022-10-23T03:40:08.761Z,100274.81
2022-10-23T03:40:40.571Z,100271.66
2022-10-23T03:41:12.798Z,100275.00
2022-10-23T03:41:44.738Z,100269.06
2022-10-23T03:42:17.602Z,100274.09
2022-10-23T03:42:49.549Z,100278.16
2022-10-23T03:43:23.251Z,100276.16
2022-10-23T03:43:55.199Z,100269.19
2022-10-23T03:44:27.273Z,100269.72
2022-10-23T03:44:59.100Z,100272.78
2022-10-23T03:45:32.558Z,100270.34
2022-10-23T03:46:09.197Z,100269.28
2022-10-23T03:46:41.342Z,100268.91
2022-10-23T03:47:13.327Z,100273.03
2022-10-23T03:47:46.668Z,100275.53
2022-10-23T03:48:18.751Z,100273.19
2022-10-23T03:48:50.639Z,100277.50
2022-10-23T03:49:23.062Z,100275.09
2022-10-23T03:49:54.938Z,100277.16
2022-10-23T03:50:28.361Z,100282.44
2022-10-23T03:51:00.176Z,100279.28
2022-10-23T03:51:32.551Z,100276.06
2022-10-23T03:52:05.360Z,100274.75
2022-10-23T03:52:37.607Z,100275.44
2022-10-23T03:53:09.539Z,100276.88
2022-10-23T03:53:41.485Z,100282.34
2022-10-23T03:54:13.318Z,100281.13
2022-10-23T03:54:45.163Z,100280.00
2022-10-23T03:55:17.187Z,100279.66
2022-10-23T03:55:48.972Z,100280.91
2022-10-23T03:56:21.964Z,100274.72
2022-10-23T03:56:57.379Z,100283.00
2022-10-23T03:57:30.767Z,100279.88
2022-10-23T03:58:03.167Z,100284.16
2022-10-23T03:58:35.130Z,100284.91
2022-10-23T03:59:06.990Z,100282.62
2022-10-23T03:59:38.843Z,100287.22
2022-10-23T04:00:11.348Z,100284.41
2022-10-23T04:00:48.205Z,100291.06
2022-10-23T04:01:20.566Z,100292.34
2022-10-23T04:01:52.620Z,100284.44
2022-10-23T04:02:24.775Z,100284.87
2022-10-23T04:02:56.997Z,100290.53
2022-10-23T04:03:28.968Z,100293.66
2022-10-23T04:04:01.019Z,100290.09
2022-10-23T04:04:33.446Z,100292.13
2022-10-23T04:05:06.057Z,100292.94
2022-10-23T04:05:39.131Z,100303.09
2022-10-23T04:06:11.139Z,100299.41
2022-10-23T04:06:43.570Z,100300.84
2022-10-23T04:07:15.669Z,100304.81
2022-10-23T04:07:47.594Z,100306.78
2022-10-23T04:08:20.325Z,100301.84
2022-10-23T04:08:53.043Z,100304.97
2022-10-23T04:09:24.969Z,100298.56
2022-10-23T04:09:56.820Z,100303.72
2022-10-23T04:10:28.969Z,100308.19
2022-10-23T04:11:00.784Z,100301.47
2022-10-23T04:11:33.582Z,100305.37
2022-10-23T04:12:06.085Z,100301.03
2022-10-23T04:12:38.013Z,100298.56
2022-10-23T04:13:11.019Z,100301.66
2022-10-23T04:13:42.903Z,100302.47
2022-10-23T04:14:14.926Z,100299.25
2022-10-23T04:14:46.773Z,100308.22
2022-10-23T04:15:18.722Z,100299.06
2022-10-23T04:15:52.388Z,100300.69
2022-10-23T04:16:25.090Z,100299.88
2022-10-23T04:16:56.976Z,100294.94
2022-10-23T04:17:29.183Z,100300.88
2022-10-23T04:18:01.071Z,100304.00
2022-10-23T04:18:32.920Z,100302.28
2022-10-23T04:19:04.778Z,100304.53
2022-10-23T04:19:36.651Z,100299.22
2022-10-23T04:20:09.540Z,100305.31
2022-10-23T04:20:41.390Z,100305.44
2022-10-23T04:21:13.251Z,100302.56
2022-10-23T04:21:45.200Z,100304.44
2022-10-23T04:22:17.174Z,100298.50
2022-10-23T04:22:49.812Z,100298.16
2022-10-23T04:23:21.701Z,100304.97
2022-10-23T04:23:53.899Z,100303.16
2022-10-23T04:24:28.040Z,100310.66
2022-10-23T04:24:59.854Z,100305.50
2022-10-23T04:25:32.023Z,100307.66
2022-10-23T04:26:04.292Z,100301.72
2022-10-23T04:26:37.076Z,100302.47
2022-10-23T04:27:09.034Z,100299.22
2022-10-23T04:27:41.565Z,100301.28
2022-10-23T04:28:14.018Z,100305.69
2022-10-23T04:28:46.107Z,100301.34
2022-10-23T04:29:18.789Z,100300.19
2022-10-23T04:29:52.357Z,100298.31
2022-10-23T04:30:26.297Z,100294.66
2022-10-23T04:30:58.223Z,100299.66
2022-10-23T04:31:30.614Z,100294.53
2022-10-23T04:32:02.453Z,100298.50
2022-10-23T04:32:34.435Z,100297.87
2022-10-23T04:33:06.284Z,100300.94
2022-10-23T04:33:39.330Z,100291.06
2022-10-23T04:34:11.411Z,100297.63
2022-10-23T04:34:43.288Z,100290.88
2022-10-23T04:35:15.179Z,100289.34
2022-10-23T04:35:47.119Z,100299.22
2022-10-23T04:36:19.054Z,100293.50
2022-10-23T04:36:50.875Z,100295.56
2022-10-23T04:37:22.827Z,100297.63
2022-10-23T04:37:54.701Z,100294.28
2022-10-23T04:38:28.051Z,100288.44
2022-10-23T04:39:00.397Z,100284.25
2022-10-23T04:39:32.291Z,100286.06
2022-10-23T04:40:04.430Z,100285.31
2022-10-23T04:40:40.012Z,100286.97
2022-10-23T04:41:11.904Z,100283.00
2022-10-23T04:41:43.857Z,100281.56
2022-10-23T04:42:15.813Z,100290.09
2022-10-23T04:42:47.693Z,100280.75
2022-10-23T04:43:19.592Z,100286.44
2022-10-23T04:43:51.577Z,100277.34
2022-10-23T04:44:23.886Z,100273.38
2022-10-23T04:44:55.822Z,100279.69
2022-10-23T04:45:28.053Z,100279.06
2022-10-23T04:46:00.459Z,100278.00
2022-10-23T04:46:32.707Z,100276.44
2022-10-23T04:47:04.646Z,100286.31
2022-10-23T04:47:37.426Z,100280.38
2022-10-23T04:48:09.710Z,100274.47
2022-10-23T04:48:43.195Z,100281.69
2022-10-23T04:49:16.236Z,100281.44
2022-10-23T04:49:49.382Z,100275.31
2022-10-23T04:50:22.960Z,100274.53
2022-10-23T04:51:10.880Z,100275.69
2022-10-23T04:51:43.862Z,100269.44
2022-10-23T04:52:16.743Z,100268.25
2022-10-23T04:52:49.080Z,100285.47
2022-10-23T04:53:26.533Z,100281.44
2022-10-23T04:53:59.498Z,100275.00
2022-10-23T04:54:39.288Z,100270.59
2022-10-23T04:55:12.246Z,100269.44
2022-10-23T04:55:55.690Z,100278.84
2022-10-23T04:56:27.905Z,100279.94
2022-10-23T04:56:59.970Z,100276.50
2022-10-23T04:57:32.343Z,100280.53
2022-10-23T04:58:04.477Z,100277.91
2022-10-23T04:58:37.098Z,100274.25
2022-10-23T04:59:09.137Z,100275.91
2022-10-23T04:59:41.637Z,100277.34
2022-10-23T05:00:16.271Z,100271.25
2022-10-23T05:00:49.344Z,100275.47
2022-10-23T05:01:25.622Z,100278.25
2022-10-23T05:01:57.592Z,100280.50
2022-10-23T05:02:29.510Z,100277.47
2022-10-23T05:03:01.622Z,100282.09
2022-10-23T05:03:35.294Z,100279.16
2022-10-23T05:04:08.433Z,100284.97
2022-10-23T05:04:43.549Z,100280.22
2022-10-23T05:05:18.833Z,100280.94
2022-10-23T05:05:54.826Z,100281.81
2022-10-23T05:06:26.975Z,100282.47
2022-10-23T05:06:59.090Z,100277.25
2022-10-23T05:07:31.126Z,100280.13
2022-10-23T05:08:03.028Z,100278.44
2022-10-23T05:08:35.919Z,100283.63
2022-10-23T05:09:08.018Z,100280.66
2022-10-23T05:09:40.060Z,100286.06
2022-10-23T05:10:12.007Z,100285.69
2022-10-23T05:10:44.418Z,100286.16
2022-10-23T05:11:16.353Z,100281.28
2022-10-23T05:11:48.717Z,100281.37
2022-10-23T05:12:20.835Z,100284.97
2022-10-23T05:12:53.023Z,100286.44
2022-10-23T05:13:24.879Z,100287.41
2022-10-23T05:13:56.744Z,100287.03
2022-10-23T05:14:28.655Z,100283.63
2022-10-23T05:15:01.273Z,100280.66
2022-10-23T05:15:33.213Z,100284.72
2022-10-23T05:16:05.720Z,100289.56
2022-10-23T05:16:46.950Z,100281.13
2022-10-23T05:17:26.306Z,100282.19
2022-10-23T05:18:17.006Z,100288.66
2022-10-23T05:18:49.056Z,100288.84
2022-10-23T05:19:24.460Z,100286.12
2022-10-23T05:20:00.974Z,100287.03
2022-10-23T05:20:36.466Z,100283.53
2022-10-23T05:21:25.939Z,100291.69
2022-10-23T05:21:58.260Z,100294.50
2022-10-23T05:22:33.919Z,100297.53
2022-10-23T05:23:11.425Z,100299.75
2022-10-23T05:23:44.585Z,100290.47
2022-10-23T05:24:18.151Z,100300.50
2022-10-23T05:24:57.711Z,100298.69
2022-10-23T05:25:30.741Z,100300.94
2022-10-23T05:26:04.211Z,100297.00
2022-10-23T05:26:36.499Z,100304.97
2022-10-23T05:27:08.883Z,100300.59
2022-10-23T05:27:43.024Z,100300.94
2022-10-23T05:28:15.546Z,100308.16
2022-10-23T05:28:47.441Z,100307.16
2022-10-23T05:29:20.807Z,100303.22
2022-10-23T05:29:52.868Z,100312.09
2022-10-23T05:30:25.197Z,100305.97
2022-10-23T05:31:00.090Z,100304.63
2022-10-23T05:31:34.717Z,100305.06
2022-10-23T05:32:12.126Z,100308.91
2022-10-23T05:32:44.631Z,100300.25
2022-10-23T05:33:17.096Z,100304.97
2022-10-23T05:33:49.306Z,100306.06
2022-10-23T05:34:25.520Z,100305.97
2022-10-23T05:34:58.345Z,100309.38
2022-10-23T05:35:31.361Z,100301.31
2022-10-23T05:36:03.586Z,100311.28
2022-10-23T05:36:37.144Z,100306.62
2022-10-23T05:37:11.929Z,100311.56
2022-10-23T05:37:46.506Z,100309.84
2022-10-23T05:38:19.156Z,100314.22
2022-10-23T05:38:51.216Z,100316.28
2022-10-23T05:39:23.550Z,100311.19
2022-10-23T05:39:58.005Z,100318.34
2022-10-23T05:40:29.993Z,100308.94
2022-10-23T05:41:03.195Z,100314.06
2022-10-23T05:41:35.151Z,100312.97
2022-10-23T05:42:07.301Z,100308.66
2022-10-23T05:42:41.554Z,100313.53
2022-10-23T05:43:15.171Z,100313.00
2022-10-23T05:43:50.136Z,100312.63
2022-10-23T05:44:22.228Z,100314.84
2022-10-23T05:44:55.017Z,100309.91
2022-10-23T05:45:26.945Z,100313.78
2022-10-23T05:46:07.363Z,100308.75
2022-10-23T05:46:42.969Z,100314.41
2022-10-23T05:47:15.282Z,100311.97
2022-10-23T05:47:49.150Z,100306.88
2022-10-23T05:48:33.644Z,100310.12
2022-10-23T05:49:06.566Z,100307.84
2022-10-23T05:49:39.105Z,100307.16
2022-10-23T05:50:11.923Z,100310.66
2022-10-23T05:50:44.000Z,100306.25
2022-10-23T05:51:22.508Z,100310.00
2022-10-23T05:51:55.115Z,100311.25
2022-10-23T05:52:27.203Z,100311.50
2022-10-23T05:53:00.519Z,100308.47
2022-10-23T05:53:33.147Z,100309.28
2022-10-23T05:54:08.397Z,100312.16
2022-10-23T05:54:40.397Z,100308.84
2022-10-23T05:55:16.499Z,100320.97
2022-10-23T05:55:49.196Z,100313.59
2022-10-23T05:56:21.176Z,100317.72
2022-10-23T05:56:55.682Z,100322.56
2022-10-23T05:57:27.811Z,100321.59
2022-10-23T05:58:04.579Z,100327.38
2022-10-23T05:58:39.505Z,100325.91
2022-10-23T05:59:11.797Z,100324.53
2022-10-23T05:59:43.950Z,100325.69
2022-10-23T06:00:16.626Z,100330.09
2022-10-23T06:00:57.697Z,100326.34
2022-10-23T06:01:37.436Z,100326.41
2022-10-23T06:02:09.865Z,100323.78
2022-10-23T06:02:46.958Z,100323.22
2022-10-23T06:03:19.660Z,100329.34
2022-10-23T06:03:52.338Z,100331.87
2022-10-23T06:04:25.414Z,100327.50
2022-10-23T06:04:58.217Z,100331.50
2022-10-23T06:05:31.439Z,100332.88
2022-10-23T06:06:06.317Z,100332.06
2022-10-23T06:06:38.675Z,100328.63
2022-10-23T06:07:10.567Z,100332.56
2022-10-23T06:07:42.869Z,100329.63
2022-10-23T06:08:15.007Z,100333.94
2022-10-23T06:08:47.507Z,100338.87
2022-10-23T06:09:19.501Z,100337.94
2022-10-23T06:09:52.956Z,100326.56
2022-10-23T06:10:25.034Z,100332.63
2022-10-23T06:10:57.329Z,100334.34
2022-10-23T06:11:29.980Z,100336.56
2022-10-23T06:12:02.846Z,100334.22
2022-10-23T06:12:35.888Z,100332.25
2022-10-23T06:13:08.057Z,100345.59
2022-10-23T06:13:43.018Z,100340.25
2022-10-23T06:14:15.216Z,100338.19
2022-10-23T06:14:48.351Z,100337.19
2022-10-23T06:15:20.370Z,100336.94
2022-10-23T06:15:53.364Z,100336.09
2022-10-23T06:16:26.854Z,100338.94
2022-10-23T06:16:59.102Z,100344.19
2022-10-23T06:17:31.787Z,100344.44
2022-10-23T06:18:04.975Z,100347.44
2022-10-23T06:18:37.754Z,100355.13
2022-10-23T06:19:12.173Z,100350.44
2022-10-23T06:19:46.021Z,100354.44
2022-10-23T06:20:18.651Z,100353.34
2022-10-23T06:20:53.674Z,100351.91
2022-10-23T06:21:26.296Z,100348.91
2022-10-23T06:21:58.507Z,100357.22
2022-10-23T06:22:30.870Z,100355.84
2022-10-23T06:23:08.047Z,100354.25
2022-10-23T06:23:43.008Z,100357.44
2022-10-23T06:24:17.746Z,100351.38
2022-10-23T06:24:49.904Z,100348.91
2022-10-23T06:25:23.710Z,100351.22
2022-10-23T06:25:56.896Z,100350.44
2022-10-23T06:26:29.785Z,100347.66
2022-10-23T06:27:02.621Z,100346.56
2022-10-23T06:27:37.752Z,100349.63
2022-10-23T06:28:10.285Z,100350.28
2022-10-23T06:28:42.712Z,100341.81
2022-10-23T06:29:14.580Z,100344.75
2022-10-23T06:29:47.191Z,100341.34
2022-10-23T06:30:19.218Z,100337.44
2022-10-23T06:30:51.396Z,100342.91
2022-10-23T06:31:27.857Z,100337.69
2022-10-23T06:32:00.744Z,100349.72
2022-10-23T06:32:33.099Z,100351.38
2022-10-23T06:33:06.627Z,100348.28
2022-10-23T06:33:38.827Z,100350.91
2022-10-23T06:34:11.859Z,100353.78
2022-10-23T06:34:43.896Z,100354.72
2022-10-23T06:35:15.861Z,100355.72
2022-10-23T06:35:48.239Z,100355.03
2022-10-23T06:36:20.159Z,100357.06
2022-10-23T06:36:52.297Z,100356.94
2022-10-23T06:37:26.316Z,100361.75
2022-10-23T06:37:58.898Z,100355.56
2022-10-23T06:38:37.389Z,100363.19
2022-10-23T06:39:10.239Z,100357.94
2022-10-23T06:39:45.450Z,100358.72
2022-10-23T06:40:17.744Z,100354.16
2022-10-23T06:40:57.701Z,100355.66
2022-10-23T06:41:29.879Z,100357.69
2022-10-23T06:42:01.720Z,100355.34
2022-10-23T06:42:36.975Z,100354.34
2022-10-23T06:43:12.113Z,100358.66
2022-10-23T06:43:48.681Z,100360.22
2022-10-23T06:44:20.964Z,100353.28
2022-10-23T06:44:53.115Z,100359.75
2022-10-23T06:45:30.023Z,100359.16
2022-10-23T06:46:04.126Z,100356.53
2022-10-23T06:46:39.049Z,100358.34
2022-10-23T06:47:14.436Z,100353.84